createdAt,value
2022-12-27T00:02:26.570Z,0.90
2022-12-27T00:06:28.615Z,0.30
2022-12-27T00:10:30.062Z,0.40
2022-12-27T00:14:31.775Z,0.50
2022-12-27T00:18:33.854Z,0.30
2022-12-27T00:22:35.381Z,0.55
2022-12-27T00:26:38.149Z,0.40
2022-12-27T00:30:39.992Z,0.68
2022-12-27T00:34:41.451Z,0.32
2022-12-27T00:38:43.309Z,0.43
2022-12-27T00:42:44.746Z,0.38
2022-12-27T00:46:46.187Z,0.25
2022-12-27T00:50:47.761Z,0.65
2022-12-27T00:54:49.191Z,0.30
2022-12-27T00:58:59.645Z,0.50
2022-12-27T01:03:01.134Z,0.63
2022-12-27T01:07:03.802Z,0.60
2022-12-27T01:11:06.551Z,0.90
2022-12-27T01:15:09.049Z,0.93
2022-12-27T01:19:10.627Z,0.65
2022-12-27T01:23:12.127Z,0.52
2022-12-27T01:27:13.809Z,0.68
2022-12-27T01:31:18.320Z,0.25
2022-12-27T01:35:19.819Z,0.28
2022-12-27T01:39:21.382Z,0.60
2022-12-27T01:43:37.885Z,0.40
2022-12-27T01:48:04.696Z,0.40
2022-12-27T01:52:08.307Z,0.32
2022-12-27T01:56:15.478Z,0.50
2022-12-27T02:00:17.806Z,0.45
2022-12-27T02:04:23.923Z,0.60
2022-12-27T02:08:43.599Z,0.60
2022-12-27T02:12:45.287Z,0.28
2022-12-27T02:16:46.755Z,0.65
2022-12-27T02:21:13.215Z,0.80
2022-12-27T02:25:26.778Z,0.30
2022-12-27T02:29:47.535Z,0.85
2022-12-27T02:33:52.423Z,0.45
2022-12-27T02:38:17.631Z,0.35
2022-12-27T02:42:39.271Z,0.35
2022-12-27T02:46:59.898Z,0.43
2022-12-27T02:51:39.062Z,0.45
2022-12-27T02:56:17.648Z,0.70
2022-12-27T03:00:41.540Z,0.40
2022-12-27T03:05:21.367Z,0.40
2022-12-27T03:09:47.592Z,0.95
2022-12-27T03:14:18.473Z,0.20
2022-12-27T03:18:28.171Z,0.47
2022-12-27T03:22:51.245Z,0.40
2022-12-27T03:26:54.622Z,0.63
2022-12-27T03:31:27.798Z,0.50
2022-12-27T03:35:35.025Z,0.40
2022-12-27T03:39:41.965Z,0.38
2022-12-27T03:43:45.076Z,0.40
2022-12-27T03:47:59.233Z,0.45
2022-12-27T03:52:14.597Z,0.57
2022-12-27T03:56:16.614Z,0.32
2022-12-27T04:00:18.214Z,0.40
2022-12-27T04:04:19.686Z,0.50
2022-12-27T04:08:39.840Z,1.15
2022-12-27T04:12:59.917Z,0.57
2022-12-27T04:17:20.270Z,0.47
2022-12-27T04:26:00.526Z,0.47
2022-12-27T04:30:20.582Z,0.68
2022-12-27T04:34:40.621Z,0.47
2022-12-27T04:38:42.065Z,0.90
2022-12-27T04:43:02.272Z,0.90
2022-12-27T04:51:42.474Z,0.40
2022-12-27T04:55:43.913Z,0.77
2022-12-27T05:00:20.811Z,0.82
2022-12-27T05:04:22.360Z,0.50
2022-12-27T05:08:42.393Z,0.60
2022-12-27T05:13:02.154Z,0.47
2022-12-27T05:17:03.601Z,0.45
2022-12-27T05:21:06.593Z,0.73
2022-12-27T05:25:27.834Z,0.63
2022-12-27T05:29:35.788Z,0.45
2022-12-27T05:33:37.204Z,0.50
2022-12-27T05:37:38.614Z,0.60
2022-12-27T05:41:40.528Z,0.43
2022-12-27T05:45:42.009Z,0.63
2022-12-27T05:49:43.431Z,0.95
2022-12-27T05:53:45.717Z,0.68
2022-12-27T05:57:47.140Z,0.77
2022-12-27T06:01:48.833Z,0.63
2022-12-27T06:05:51.081Z,0.35
2022-12-27T06:09:52.526Z,0.88
2022-12-27T06:13:54.173Z,0.52
2022-12-27T06:17:57.737Z,0.82
2022-12-27T06:21:59.301Z,0.50
2022-12-27T06:26:07.932Z,0.80
2022-12-27T06:30:12.155Z,0.57
2022-12-27T06:34:13.630Z,0.75
2022-12-27T06:38:15.126Z,0.95
2022-12-27T06:42:16.578Z,1.05
2022-12-27T06:46:18.710Z,0.60
2022-12-27T06:50:20.417Z,0.50
2022-12-27T06:54:22.126Z,1.00
2022-12-27T06:58:23.650Z,0.30
2022-12-27T07:02:25.293Z,0.50
2022-12-27T07:06:30.061Z,0.35
2022-12-27T07:10:31.659Z,0.50
2022-12-27T07:14:33.357Z,0.80
2022-12-27T07:18:35.788Z,0.35
2022-12-27T07:22:38.264Z,0.50
2022-12-27T07:26:39.690Z,0.93
2022-12-27T07:30:41.916Z,0.40
2022-12-27T07:34:43.516Z,0.52
2022-12-27T07:38:45.286Z,0.55
2022-12-27T07:42:47.039Z,0.30
2022-12-27T07:46:48.609Z,0.95
2022-12-27T07:50:55.543Z,0.40
2022-12-27T07:54:56.987Z,1.05
2022-12-27T07:59:00.884Z,0.30
2022-12-27T08:03:03.665Z,0.60
2022-12-27T08:07:07.560Z,0.57
2022-12-27T08:11:09.046Z,0.47
2022-12-27T08:15:11.976Z,0.73
2022-12-27T08:19:13.475Z,0.43
2022-12-27T08:23:14.900Z,0.50
2022-12-27T08:27:24.490Z,0.60
2022-12-27T08:31:25.920Z,0.70
2022-12-27T08:35:51.416Z,0.32
2022-12-27T08:39:48.791Z,0.82
2022-12-27T08:43:50.634Z,0.30
2022-12-27T08:47:52.136Z,0.30
2022-12-27T08:51:53.652Z,0.65
2022-12-27T08:55:56.769Z,0.63
2022-12-27T08:59:58.864Z,0.60
2022-12-27T09:04:00.885Z,0.45
2022-12-27T09:08:02.333Z,0.90
2022-12-27T09:12:08.081Z,0.60
2022-12-27T09:16:13.604Z,0.93
2022-12-27T09:20:15.082Z,0.47
2022-12-27T09:24:16.764Z,0.57
2022-12-27T09:28:18.287Z,0.60
2022-12-27T09:32:19.733Z,0.63
2022-12-27T09:36:24.015Z,1.25
2022-12-27T09:40:25.448Z,0.40
2022-12-27T09:44:52.289Z,0.40
2022-12-27T09:48:56.155Z,0.40
2022-12-27T09:53:12.692Z,0.50
2022-12-27T09:57:26.309Z,0.47
2022-12-27T10:01:35.435Z,0.50
2022-12-27T10:05:39.503Z,0.27
2022-12-27T10:09:48.187Z,0.40
2022-12-27T10:13:56.844Z,0.40
2022-12-27T10:18:44.211Z,0.50
2022-12-27T10:22:53.024Z,0.35
2022-12-27T10:26:55.614Z,0.30
2022-12-27T10:31:02.724Z,0.30
2022-12-27T10:35:04.857Z,0.52
2022-12-27T10:39:17.923Z,0.43
2022-12-27T10:43:26.356Z,0.40
2022-12-27T10:47:27.835Z,0.50
2022-12-27T10:51:38.463Z,0.32
2022-12-27T10:55:39.957Z,0.55
2022-12-27T10:59:41.448Z,0.43
2022-12-27T11:03:43.144Z,0.82
2022-12-27T11:07:44.577Z,0.68
2022-12-27T11:11:46.426Z,0.30
2022-12-27T11:15:58.993Z,0.70
2022-12-27T11:20:15.199Z,0.65
2022-12-27T11:24:18.168Z,0.95
2022-12-27T11:28:47.726Z,0.75
2022-12-27T11:32:49.808Z,0.73
2022-12-27T11:36:55.788Z,0.85
2022-12-27T11:41:09.376Z,0.35
2022-12-27T11:45:34.480Z,0.30
2022-12-27T11:49:40.097Z,0.20
2022-12-27T11:54:02.946Z,0.35
2022-12-27T11:58:19.366Z,0.40
2022-12-27T12:02:36.590Z,0.47
2022-12-27T12:07:04.225Z,0.30
2022-12-27T12:11:18.421Z,0.30
2022-12-27T12:15:37.075Z,0.22
2022-12-27T12:20:07.281Z,0.38
2022-12-27T12:24:42.115Z,0.25
2022-12-27T12:29:04.727Z,0.22
2022-12-27T12:33:41.938Z,0.57
2022-12-27T12:38:05.411Z,0.68
2022-12-27T12:42:45.418Z,0.30
2022-12-27T12:46:57.443Z,0.77
2022-12-27T12:51:22.180Z,0.20
2022-12-27T12:55:56.180Z,0.38
2022-12-27T13:00:33.708Z,0.40
2022-12-27T13:05:00.989Z,0.50
2022-12-27T13:09:17.975Z,0.50
2022-12-27T13:13:26.334Z,0.73
2022-12-27T13:17:38.756Z,0.40
2022-12-27T13:22:15.483Z,0.40
2022-12-27T13:26:33.236Z,0.35
2022-12-27T13:30:43.055Z,0.25
2022-12-27T13:39:15.254Z,0.52
2022-12-27T13:43:54.220Z,0.32
2022-12-27T13:48:29.380Z,0.30
2022-12-27T13:52:48.411Z,0.47
2022-12-27T13:57:12.534Z,0.20
2022-12-27T14:01:19.674Z,0.43
2022-12-27T14:05:41.312Z,0.30
2022-12-27T14:09:48.920Z,0.50
2022-12-27T14:13:51.635Z,0.40
2022-12-27T14:18:05.953Z,0.70
2022-12-27T14:22:34.821Z,0.30
2022-12-27T14:27:04.038Z,0.30
2022-12-27T14:31:47.940Z,0.32
2022-12-27T14:36:13.913Z,0.68
2022-12-27T14:40:24.061Z,0.38
2022-12-27T14:44:59.390Z,0.20
2022-12-27T14:49:46.026Z,0.30
2022-12-27T14:54:15.447Z,0.57
2022-12-27T14:58:31.670Z,0.60
2022-12-27T15:03:08.192Z,0.52
2022-12-27T15:07:31.165Z,0.30
2022-12-27T15:11:44.328Z,0.55
2022-12-27T15:16:00.382Z,0.30
2022-12-27T15:20:32.410Z,0.55
2022-12-27T15:25:05.046Z,0.50
2022-12-27T15:29:20.604Z,0.45
2022-12-27T15:33:41.006Z,0.43
2022-12-27T15:37:48.371Z,0.47
2022-12-27T15:42:09.024Z,0.40
2022-12-27T15:46:41.584Z,0.45
2022-12-27T15:51:10.171Z,0.50
2022-12-27T15:55:25.794Z,1.08
2022-12-27T15:59:54.665Z,0.50
2022-12-27T16:03:58.431Z,0.50
2022-12-27T16:08:00.061Z,1.10
2022-12-27T16:12:04.526Z,1.95
2022-12-27T16:16:10.286Z,0.70
2022-12-27T16:20:16.446Z,0.50
2022-12-27T16:24:21.581Z,0.40
2022-12-27T16:28:27.704Z,0.73
2022-12-27T16:32:29.307Z,0.60
2022-12-27T16:36:34.711Z,0.70
2022-12-27T16:40:43.982Z,0.55
2022-12-27T16:44:54.946Z,0.38
2022-12-27T16:49:12.215Z,0.40
2022-12-27T16:53:44.959Z,0.68
2022-12-27T16:57:49.656Z,0.50
2022-12-27T17:01:52.562Z,0.68
2022-12-27T17:10:27.941Z,0.60
2022-12-27T17:14:34.662Z,1.00
2022-12-27T17:18:47.825Z,0.52
2022-12-27T17:22:56.330Z,0.50
2022-12-27T17:27:25.088Z,0.75
2022-12-27T17:32:08.144Z,0.60
2022-12-27T17:36:30.635Z,0.50
2022-12-27T17:41:11.835Z,0.50
2022-12-27T17:46:14.809Z,0.93
2022-12-27T17:50:23.789Z,0.60
2022-12-27T17:54:44.696Z,0.57
2022-12-27T17:58:46.157Z,0.93
2022-12-27T18:02:48.194Z,0.80
2022-12-27T18:06:54.590Z,2.67
2022-12-27T18:10:58.329Z,0.60
2022-12-27T18:15:21.172Z,2.55
2022-12-27T18:19:29.557Z,0.82
2022-12-27T18:23:41.379Z,1.63
2022-12-27T18:27:42.827Z,1.15
2022-12-27T18:31:49.752Z,0.93
2022-12-27T18:35:51.889Z,1.25
2022-12-27T18:40:01.397Z,1.08
2022-12-27T18:44:03.891Z,1.27
2022-12-27T18:48:12.007Z,1.13
2022-12-27T18:52:16.477Z,1.08
2022-12-27T18:56:32.793Z,1.95
2022-12-27T19:00:48.400Z,1.00
2022-12-27T19:05:13.595Z,1.70
2022-12-27T19:09:17.885Z,1.63
2022-12-27T19:13:27.776Z,0.90
2022-12-27T19:17:31.365Z,1.92
2022-12-27T19:21:36.994Z,1.20
2022-12-27T19:25:39.564Z,0.88
2022-12-27T19:29:50.046Z,1.52
2022-12-27T19:33:55.721Z,2.28
2022-12-27T19:37:57.924Z,1.27
2022-12-27T19:42:03.199Z,1.08
2022-12-27T19:46:05.052Z,1.58
2022-12-27T19:50:07.206Z,1.70
2022-12-27T19:54:14.682Z,1.15
2022-12-27T19:58:24.703Z,1.48
2022-12-27T20:02:26.609Z,1.85
2022-12-27T20:06:28.536Z,1.90
2022-12-27T20:10:29.995Z,1.67
2022-12-27T20:14:31.458Z,0.73
2022-12-27T20:18:33.035Z,1.40
2022-12-27T20:22:35.455Z,1.73
2022-12-27T20:26:37.082Z,1.00
2022-12-27T20:30:40.736Z,1.73
2022-12-27T20:34:42.380Z,1.15
2022-12-27T20:38:43.940Z,1.17
2022-12-27T20:42:45.424Z,1.30
2022-12-27T20:46:47.529Z,1.55
2022-12-27T20:50:49.023Z,1.70
2022-12-27T20:54:50.468Z,0.80
2022-12-27T20:58:52.757Z,1.27
2022-12-27T21:02:54.462Z,1.50
2022-12-27T21:06:56.123Z,1.33
2022-12-27T21:10:57.564Z,1.05
2022-12-27T21:14:59.159Z,1.08
2022-12-27T21:19:04.784Z,1.48
2022-12-27T21:23:06.364Z,2.22
2022-12-27T21:27:07.831Z,1.50
2022-12-27T21:31:10.700Z,1.25
2022-12-27T21:35:12.164Z,1.73
2022-12-27T21:39:13.861Z,1.42
2022-12-27T21:43:15.282Z,2.10
2022-12-27T21:47:16.749Z,1.08
2022-12-27T21:51:18.811Z,1.13
2022-12-27T21:55:20.245Z,1.73
2022-12-27T21:59:21.682Z,1.38
2022-12-27T22:03:23.334Z,1.90
2022-12-27T22:07:24.907Z,1.75
2022-12-27T22:11:28.298Z,1.50
2022-12-27T22:15:29.852Z,1.98
2022-12-27T22:19:31.393Z,1.30
2022-12-27T22:23:35.417Z,1.58
2022-12-27T22:27:36.876Z,2.00
2022-12-27T22:31:39.281Z,1.85
2022-12-27T22:35:41.660Z,1.30
2022-12-27T22:39:43.454Z,1.38
2022-12-27T22:43:51.420Z,1.80
2022-12-27T22:47:53.388Z,1.85
2022-12-27T22:51:54.862Z,1.50
2022-12-27T22:55:56.395Z,1.80
2022-12-27T22:59:57.820Z,1.13
2022-12-27T23:04:01.202Z,1.13
2022-12-27T23:08:05.219Z,1.80
2022-12-27T23:12:08.299Z,2.85
2022-12-27T23:16:10.339Z,1.55
2022-12-27T23:20:11.850Z,1.98
2022-12-27T23:24:14.072Z,1.88
2022-12-27T23:28:15.552Z,2.25
2022-12-27T23:32:17.003Z,2.28
2022-12-27T23:36:19.391Z,2.95
2022-12-27T23:40:20.881Z,1.95
2022-12-27T23:44:33.854Z,1.98
2022-12-27T23:48:36.165Z,2.83
2022-12-27T23:52:37.609Z,2.28
2022-12-27T23:56:39.277Z,2.95
